sensor_id;sensor_type;location;lat;lon;timestamp;P1;durP1;ratioP1;P2;durP2;ratioP2
30380;SDS011;17169;50.966;11.038;2024-03-22T00:00:34;11.52;;;5.93;;
30380;SDS011;17169;50.966;11.038;2024-03-22T00:03:36;10.55;;;5.65;;
30380;SDS011;17169;50.966;11.038;2024-03-22T00:06:38;11.70;;;5.95;;
30380;SDS011;17169;50.966;11.038;2024-03-22T00:09:39;11.18;;;5.40;;
30380;SDS011;17169;50.966;11.038;2024-03-22T00:12:43;12.82;;;5.47;;
30380;SDS011;17169;50.966;11.038;2024-03-22T00:15:44;9.88;;;4.97;;
30380;SDS011;17169;50.966;11.038;2024-03-22T00:18:46;10.73;;;5.70;;
30380;SDS011;17169;50.966;11.038;2024-03-22T00:21:48;9.43;;;5.57;;
30380;SDS011;17169;50.966;11.038;2024-03-22T00:24:50;12.65;;;5.65;;
30380;SDS011;17169;50.966;11.038;2024-03-22T00:27:52;10.98;;;5.00;;
30380;SDS011;17169;50.966;11.038;2024-03-22T00:30:55;12.75;;;5.60;;
30380;SDS011;17169;50.966;11.038;2024-03-22T00:33:56;12.60;;;6.18;;
30380;SDS011;17169;50.966;11.038;2024-03-22T00:36:58;8.68;;;5.13;;
30380;SDS011;17169;50.966;11.038;2024-03-22T00:40:01;8.65;;;4.78;;
30380;SDS011;17169;50.966;11.038;2024-03-22T00:43:03;15.15;;;5.47;;
30380;SDS011;17169;50.966;11.038;2024-03-22T00:46:06;12.68;;;5.38;;
30380;SDS011;17169;50.966;11.038;2024-03-22T00:49:08;9.75;;;4.60;;
30380;SDS011;17169;50.966;11.038;2024-03-22T00:52:09;9.77;;;4.70;;
30380;SDS011;17169;50.966;11.038;2024-03-22T00:55:12;9.05;;;4.68;;
30380;SDS011;17169;50.966;11.038;2024-03-22T00:58:14;10.82;;;4.85;;
30380;SDS011;17169;50.966;11.038;2024-03-22T01:01:16;9.70;;;5.18;;
30380;SDS011;17169;50.966;11.038;2024-03-22T01:04:19;12.50;;;5.00;;
30380;SDS011;17169;50.966;11.038;2024-03-22T01:07:20;12.00;;;5.30;;
30380;SDS011;17169;50.966;11.038;2024-03-22T01:10:22;8.57;;;4.70;;
30380;SDS011;17169;50.966;11.038;2024-03-22T01:13:25;8.05;;;4.90;;
30380;SDS011;17169;50.966;11.038;2024-03-22T01:16:27;13.00;;;5.15;;
30380;SDS011;17169;50.966;11.038;2024-03-22T01:19:29;9.23;;;4.88;;
30380;SDS011;17169;50.966;11.038;2024-03-22T01:22:30;9.15;;;4.80;;
30380;SDS011;17169;50.966;11.038;2024-03-22T01:25:33;10.27;;;4.45;;
30380;SDS011;17169;50.966;11.038;2024-03-22T01:28:35;12.30;;;4.90;;
30380;SDS011;17169;50.966;11.038;2024-03-22T01:31:37;10.57;;;4.57;;
30380;SDS011;17169;50.966;11.038;2024-03-22T01:34:39;9.30;;;4.90;;
30380;SDS011;17169;50.966;11.038;2024-03-22T01:37:41;8.57;;;4.68;;
30380;SDS011;17169;50.966;11.038;2024-03-22T01:40:43;9.40;;;4.55;;
30380;SDS011;17169;50.966;11.038;2024-03-22T01:43:46;7.30;;;4.13;;
30380;SDS011;17169;50.966;11.038;2024-03-22T01:46:48;8.43;;;4.47;;
30380;SDS011;17169;50.966;11.038;2024-03-22T01:49:50;10.75;;;4.10;;
30380;SDS011;17169;50.966;11.038;2024-03-22T01:52:55;8.52;;;3.97;;
30380;SDS011;17169;50.966;11.038;2024-03-22T01:55:58;8.75;;;4.88;;
30380;SDS011;17169;50.966;11.038;2024-03-22T01:59:00;12.68;;;5.50;;
30380;SDS011;17169;50.966;11.038;2024-03-22T02:02:03;8.55;;;4.53;;
30380;SDS011;17169;50.966;11.038;2024-03-22T02:05:11;7.60;;;4.03;;
30380;SDS011;17169;50.966;11.038;2024-03-22T02:08:13;8.82;;;4.63;;
30380;SDS011;17169;50.966;11.038;2024-03-22T02:11:16;8.20;;;5.60;;
30380;SDS011;17169;50.966;11.038;2024-03-22T02:14:18;9.07;;;4.75;;
30380;SDS011;17169;50.966;11.038;2024-03-22T02:17:20;7.35;;;4.57;;
30380;SDS011;17169;50.966;11.038;2024-03-22T02:20:22;8.07;;;3.95;;
30380;SDS011;17169;50.966;11.038;2024-03-22T02:23:27;8.60;;;4.30;;
30380;SDS011;17169;50.966;11.038;2024-03-22T02:26:32;9.65;;;4.55;;
30380;SDS011;17169;50.966;11.038;2024-03-22T02:29:34;7.63;;;4.22;;
30380;SDS011;17169;50.966;11.038;2024-03-22T02:32:36;6.78;;;4.03;;
30380;SDS011;17169;50.966;11.038;2024-03-22T02:35:39;8.07;;;4.40;;
30380;SDS011;17169;50.966;11.038;2024-03-22T02:38:42;8.45;;;4.55;;
30380;SDS011;17169;50.966;11.038;2024-03-22T02:41:44;9.48;;;5.75;;
30380;SDS011;17169;50.966;11.038;2024-03-22T02:44:46;7.85;;;4.47;;
30380;SDS011;17169;50.966;11.038;2024-03-22T02:47:48;8.50;;;4.40;;
30380;SDS011;17169;50.966;11.038;2024-03-22T02:50:49;6.95;;;4.35;;
30380;SDS011;17169;50.966;11.038;2024-03-22T02:53:57;8.93;;;4.50;;
30380;SDS011;17169;50.966;11.038;2024-03-22T02:56:59;9.27;;;4.53;;
30380;SDS011;17169;50.966;11.038;2024-03-22T03:00:02;7.10;;;4.50;;
30380;SDS011;17169;50.966;11.038;2024-03-22T03:03:05;7.70;;;4.22;;
30380;SDS011;17169;50.966;11.038;2024-03-22T03:06:08;6.88;;;4.10;;
30380;SDS011;17169;50.966;11.038;2024-03-22T03:09:10;10.90;;;4.68;;
30380;SDS011;17169;50.966;11.038;2024-03-22T03:12:12;9.50;;;4.65;;
30380;SDS011;17169;50.966;11.038;2024-03-22T03:15:14;11.52;;;4.70;;
30380;SDS011;17169;50.966;11.038;2024-03-22T03:18:17;10.07;;;5.05;;
30380;SDS011;17169;50.966;11.038;2024-03-22T03:21:19;12.13;;;5.43;;
30380;SDS011;17169;50.966;11.038;2024-03-22T03:24:22;9.45;;;4.78;;
30380;SDS011;17169;50.966;11.038;2024-03-22T03:27:24;10.48;;;5.68;;
30380;SDS011;17169;50.966;11.038;2024-03-22T03:30:26;9.23;;;5.28;;
30380;SDS011;17169;50.966;11.038;2024-03-22T03:33:28;10.20;;;4.80;;
30380;SDS011;17169;50.966;11.038;2024-03-22T03:36:30;10.25;;;5.05;;
30380;SDS011;17169;50.966;11.038;2024-03-22T03:39:33;11.88;;;5.72;;
30380;SDS011;17169;50.966;11.038;2024-03-22T03:42:35;10.10;;;5.68;;
30380;SDS011;17169;50.966;11.038;2024-03-22T03:45:37;10.35;;;5.93;;
30380;SDS011;17169;50.966;11.038;2024-03-22T03:48:38;11.60;;;5.80;;
30380;SDS011;17169;50.966;11.038;2024-03-22T03:51:40;10.25;;;5.53;;
30380;SDS011;17169;50.966;11.038;2024-03-22T03:54:43;15.85;;;6.53;;
30380;SDS011;17169;50.966;11.038;2024-03-22T03:57:45;11.57;;;5.88;;
30380;SDS011;17169;50.966;11.038;2024-03-22T04:00:46;12.23;;;6.55;;
30380;SDS011;17169;50.966;11.038;2024-03-22T04:03:49;12.05;;;6.90;;
30380;SDS011;17169;50.966;11.038;2024-03-22T04:06:50;12.00;;;6.90;;
30380;SDS011;17169;50.966;11.038;2024-03-22T04:09:54;13.65;;;6.13;;
30380;SDS011;17169;50.966;11.038;2024-03-22T04:12:56;13.15;;;6.72;;
30380;SDS011;17169;50.966;11.038;2024-03-22T04:15:58;12.15;;;5.85;;
30380;SDS011;17169;50.966;11.038;2024-03-22T04:19:00;8.40;;;5.25;;
30380;SDS011;17169;50.966;11.038;2024-03-22T04:22:02;12.02;;;6.88;;
30380;SDS011;17169;50.966;11.038;2024-03-22T04:25:06;10.73;;;5.72;;
30380;SDS011;17169;50.966;11.038;2024-03-22T04:28:09;12.40;;;6.43;;
30380;SDS011;17169;50.966;11.038;2024-03-22T04:31:11;12.15;;;6.40;;
30380;SDS011;17169;50.966;11.038;2024-03-22T04:34:13;10.32;;;5.88;;
30380;SDS011;17169;50.966;11.038;2024-03-22T04:37:15;11.23;;;5.80;;
30380;SDS011;17169;50.966;11.038;2024-03-22T04:40:19;10.70;;;5.78;;
30380;SDS011;17169;50.966;11.038;2024-03-22T04:43:22;10.20;;;5.55;;
30380;SDS011;17169;50.966;11.038;2024-03-22T04:46:25;13.43;;;6.03;;
30380;SDS011;17169;50.966;11.038;2024-03-22T04:49:27;11.13;;;6.05;;
30380;SDS011;17169;50.966;11.038;2024-03-22T04:52:28;11.07;;;5.85;;
30380;SDS011;17169;50.966;11.038;2024-03-22T04:55:33;20.15;;;8.60;;
30380;SDS011;17169;50.966;11.038;2024-03-22T04:58:35;20.40;;;8.85;;
30380;SDS011;17169;50.966;11.038;2024-03-22T05:01:37;19.83;;;10.27;;
30380;SDS011;17169;50.966;11.038;2024-03-22T05:04:38;20.50;;;10.02;;
30380;SDS011;17169;50.966;11.038;2024-03-22T05:07:40;24.80;;;11.90;;
30380;SDS011;17169;50.966;11.038;2024-03-22T05:10:43;25.25;;;11.77;;
30380;SDS011;17169;50.966;11.038;2024-03-22T05:13:45;22.83;;;11.18;;
30380;SDS011;17169;50.966;11.038;2024-03-22T05:16:47;21.33;;;11.18;;
30380;SDS011;17169;50.966;11.038;2024-03-22T05:19:49;22.23;;;11.93;;
30380;SDS011;17169;50.966;11.038;2024-03-22T05:22:50;21.25;;;11.18;;
30380;SDS011;17169;50.966;11.038;2024-03-22T05:25:54;23.48;;;12.40;;
30380;SDS011;17169;50.966;11.038;2024-03-22T05:28:55;26.23;;;11.20;;
30380;SDS011;17169;50.966;11.038;2024-03-22T05:31:58;21.70;;;11.57;;
30380;SDS011;17169;50.966;11.038;2024-03-22T05:35:01;22.90;;;11.68;;
30380;SDS011;17169;50.966;11.038;2024-03-22T05:38:02;20.17;;;10.82;;
30380;SDS011;17169;50.966;11.038;2024-03-22T05:41:06;21.15;;;11.05;;
30380;SDS011;17169;50.966;11.038;2024-03-22T05:44:07;20.15;;;10.43;;
30380;SDS011;17169;50.966;11.038;2024-03-22T05:47:10;20.27;;;10.75;;
30380;SDS011;17169;50.966;11.038;2024-03-22T05:50:11;25.30;;;10.35;;
30380;SDS011;17169;50.966;11.038;2024-03-22T05:53:15;19.98;;;10.30;;
30380;SDS011;17169;50.966;11.038;2024-03-22T05:56:18;19.80;;;9.90;;
30380;SDS011;17169;50.966;11.038;2024-03-22T05:59:20;19.98;;;9.90;;
30380;SDS011;17169;50.966;11.038;2024-03-22T06:02:22;18.10;;;9.55;;
30380;SDS011;17169;50.966;11.038;2024-03-22T06:05:23;22.05;;;10.65;;
30380;SDS011;17169;50.966;11.038;2024-03-22T06:08:26;19.95;;;11.30;;
30380;SDS011;17169;50.966;11.038;2024-03-22T06:11:29;25.85;;;12.80;;
30380;SDS011;17169;50.966;11.038;2024-03-22T06:14:31;23.23;;;12.93;;
30380;SDS011;17169;50.966;11.038;2024-03-22T06:17:33;24.55;;;13.55;;
30380;SDS011;17169;50.966;11.038;2024-03-22T06:20:34;26.98;;;14.23;;
30380;SDS011;17169;50.966;11.038;2024-03-22T06:23:37;30.02;;;15.07;;
30380;SDS011;17169;50.966;11.038;2024-03-22T06:26:40;26.40;;;15.23;;
30380;SDS011;17169;50.966;11.038;2024-03-22T06:29:41;30.55;;;15.80;;
30380;SDS011;17169;50.966;11.038;2024-03-22T06:32:44;31.67;;;14.82;;
30380;SDS011;17169;50.966;11.038;2024-03-22T06:35:45;28.80;;;15.13;;
30380;SDS011;17169;50.966;11.038;2024-03-22T06:38:48;29.40;;;15.95;;
30380;SDS011;17169;50.966;11.038;2024-03-22T06:41:51;26.60;;;14.27;;
30380;SDS011;17169;50.966;11.038;2024-03-22T06:44:53;30.67;;;15.73;;
30380;SDS011;17169;50.966;11.038;2024-03-22T06:47:55;29.17;;;15.80;;
30380;SDS011;17169;50.966;11.038;2024-03-22T06:50:56;26.95;;;15.35;;
30380;SDS011;17169;50.966;11.038;2024-03-22T06:53:58;26.67;;;15.02;;
30380;SDS011;17169;50.966;11.038;2024-03-22T06:57:02;28.60;;;15.38;;
30380;SDS011;17169;50.966;11.038;2024-03-22T07:00:04;29.13;;;16.02;;
30380;SDS011;17169;50.966;11.038;2024-03-22T07:03:10;30.45;;;16.33;;
30380;SDS011;17169;50.966;11.038;2024-03-22T07:06:13;26.77;;;14.63;;
30380;SDS011;17169;50.966;11.038;2024-03-22T07:09:16;31.60;;;15.38;;
30380;SDS011;17169;50.966;11.038;2024-03-22T07:12:18;30.73;;;15.15;;
30380;SDS011;17169;50.966;11.038;2024-03-22T07:15:21;29.42;;;15.63;;
30380;SDS011;17169;50.966;11.038;2024-03-22T07:18:23;33.95;;;15.40;;
30380;SDS011;17169;50.966;11.038;2024-03-22T07:21:25;28.00;;;14.70;;
30380;SDS011;17169;50.966;11.038;2024-03-22T07:24:27;31.92;;;15.73;;
30380;SDS011;17169;50.966;11.038;2024-03-22T07:27:31;27.55;;;14.95;;
30380;SDS011;17169;50.966;11.038;2024-03-22T07:30:32;25.42;;;14.20;;
30380;SDS011;17169;50.966;11.038;2024-03-22T07:33:36;30.10;;;14.50;;
30380;SDS011;17169;50.966;11.038;2024-03-22T07:36:39;24.27;;;13.60;;
30380;SDS011;17169;50.966;11.038;2024-03-22T07:39:41;26.67;;;13.90;;
30380;SDS011;17169;50.966;11.038;2024-03-22T07:42:44;28.00;;;14.40;;
30380;SDS011;17169;50.966;11.038;2024-03-22T07:45:46;23.33;;;13.88;;
30380;SDS011;17169;50.966;11.038;2024-03-22T07:48:48;27.67;;;13.88;;
30380;SDS011;17169;50.966;11.038;2024-03-22T07:51:50;22.27;;;12.48;;
30380;SDS011;17169;50.966;11.038;2024-03-22T07:54:51;24.25;;;12.52;;
30380;SDS011;17169;50.966;11.038;2024-03-22T07:57:55;21.80;;;12.63;;
30380;SDS011;17169;50.966;11.038;2024-03-22T08:00:58;22.20;;;11.82;;
30380;SDS011;17169;50.966;11.038;2024-03-22T08:03:59;21.90;;;10.85;;
30380;SDS011;17169;50.966;11.038;2024-03-22T08:07:01;19.40;;;11.00;;
30380;SDS011;17169;50.966;11.038;2024-03-22T08:10:03;22.05;;;11.30;;
30380;SDS011;17169;50.966;11.038;2024-03-22T08:13:07;20.25;;;10.02;;
30380;SDS011;17169;50.966;11.038;2024-03-22T08:16:09;17.50;;;10.05;;
30380;SDS011;17169;50.966;11.038;2024-03-22T08:19:10;21.85;;;10.55;;
30380;SDS011;17169;50.966;11.038;2024-03-22T08:22:13;18.85;;;10.57;;
30380;SDS011;17169;50.966;11.038;2024-03-22T08:25:14;20.08;;;9.90;;
30380;SDS011;17169;50.966;11.038;2024-03-22T08:28:19;21.33;;;9.85;;
30380;SDS011;17169;50.966;11.038;2024-03-22T08:31:20;17.27;;;9.07;;
30380;SDS011;17169;50.966;11.038;2024-03-22T08:34:26;15.48;;;8.70;;
30380;SDS011;17169;50.966;11.038;2024-03-22T08:37:27;17.85;;;9.32;;
30380;SDS011;17169;50.966;11.038;2024-03-22T08:40:29;16.35;;;8.70;;
30380;SDS011;17169;50.966;11.038;2024-03-22T08:43:32;16.98;;;8.88;;
30380;SDS011;17169;50.966;11.038;2024-03-22T08:46:34;17.05;;;9.55;;
30380;SDS011;17169;50.966;11.038;2024-03-22T08:49:36;23.75;;;8.90;;
30380;SDS011;17169;50.966;11.038;2024-03-22T08:52:38;15.52;;;8.40;;
30380;SDS011;17169;50.966;11.038;2024-03-22T08:55:44;18.27;;;9.32;;
30380;SDS011;17169;50.966;11.038;2024-03-22T08:58:49;14.95;;;8.50;;
30380;SDS011;17169;50.966;11.038;2024-03-22T09:01:51;14.90;;;8.23;;
30380;SDS011;17169;50.966;11.038;2024-03-22T09:04:54;12.00;;;7.38;;
30380;SDS011;17169;50.966;11.038;2024-03-22T09:07:56;14.18;;;7.72;;
30380;SDS011;17169;50.966;11.038;2024-03-22T09:10:58;16.67;;;8.18;;
30380;SDS011;17169;50.966;11.038;2024-03-22T09:14:01;14.07;;;7.80;;
30380;SDS011;17169;50.966;11.038;2024-03-22T09:17:03;17.20;;;7.88;;
30380;SDS011;17169;50.966;11.038;2024-03-22T09:20:05;14.55;;;7.85;;
30380;SDS011;17169;50.966;11.038;2024-03-22T09:23:08;12.35;;;7.53;;
30380;SDS011;17169;50.966;11.038;2024-03-22T09:26:09;14.15;;;7.70;;
30380;SDS011;17169;50.966;11.038;2024-03-22T09:29:14;11.05;;;6.63;;
30380;SDS011;17169;50.966;11.038;2024-03-22T09:32:15;11.45;;;6.82;;
30380;SDS011;17169;50.966;11.038;2024-03-22T09:35:17;14.75;;;7.55;;
30380;SDS011;17169;50.966;11.038;2024-03-22T09:38:18;13.95;;;8.00;;
30380;SDS011;17169;50.966;11.038;2024-03-22T09:41:23;18.55;;;7.07;;
30380;SDS011;17169;50.966;11.038;2024-03-22T09:44:27;11.63;;;7.33;;
30380;SDS011;17169;50.966;11.038;2024-03-22T09:47:29;15.98;;;8.13;;
30380;SDS011;17169;50.966;11.038;2024-03-22T09:50:31;16.85;;;8.88;;
30380;SDS011;17169;50.966;11.038;2024-03-22T09:53:33;16.00;;;8.90;;
30380;SDS011;17169;50.966;11.038;2024-03-22T09:56:37;16.00;;;8.32;;
30380;SDS011;17169;50.966;11.038;2024-03-22T09:59:42;17.50;;;9.98;;
30380;SDS011;17169;50.966;11.038;2024-03-22T10:02:45;16.77;;;8.75;;
30380;SDS011;17169;50.966;11.038;2024-03-22T10:05:47;18.45;;;9.27;;
30380;SDS011;17169;50.966;11.038;2024-03-22T10:08:49;16.88;;;9.43;;
30380;SDS011;17169;50.966;11.038;2024-03-22T10:11:51;17.30;;;9.77;;
30380;SDS011;17169;50.966;11.038;2024-03-22T10:14:54;16.65;;;10.20;;
30380;SDS011;17169;50.966;11.038;2024-03-22T10:17:56;21.92;;;10.18;;
30380;SDS011;17169;50.966;11.038;2024-03-22T10:20:59;18.98;;;10.23;;
30380;SDS011;17169;50.966;11.038;2024-03-22T10:24:01;21.77;;;12.02;;
30380;SDS011;17169;50.966;11.038;2024-03-22T10:27:04;18.08;;;10.60;;
30380;SDS011;17169;50.966;11.038;2024-03-22T10:33:11;20.08;;;12.68;;
30380;SDS011;17169;50.966;11.038;2024-03-22T10:36:13;18.95;;;12.93;;
30380;SDS011;17169;50.966;11.038;2024-03-22T10:39:17;21.77;;;11.82;;
30380;SDS011;17169;50.966;11.038;2024-03-22T10:42:19;26.20;;;13.00;;
30380;SDS011;17169;50.966;11.038;2024-03-22T10:45:23;23.48;;;12.85;;
30380;SDS011;17169;50.966;11.038;2024-03-22T10:48:26;24.03;;;12.47;;
30380;SDS011;17169;50.966;11.038;2024-03-22T10:51:31;31.55;;;12.60;;
30380;SDS011;17169;50.966;11.038;2024-03-22T10:54:38;24.30;;;13.00;;
30380;SDS011;17169;50.966;11.038;2024-03-22T10:57:42;23.30;;;12.07;;
30380;SDS011;17169;50.966;11.038;2024-03-22T11:00:45;23.75;;;13.20;;
30380;SDS011;17169;50.966;11.038;2024-03-22T11:03:48;22.92;;;12.63;;
30380;SDS011;17169;50.966;11.038;2024-03-22T11:06:49;23.15;;;12.10;;
30380;SDS011;17169;50.966;11.038;2024-03-22T11:09:52;19.73;;;12.52;;
30380;SDS011;17169;50.966;11.038;2024-03-22T11:12:53;21.73;;;12.18;;
30380;SDS011;17169;50.966;11.038;2024-03-22T11:15:58;18.63;;;12.13;;
30380;SDS011;17169;50.966;11.038;2024-03-22T11:18:59;19.80;;;11.27;;
30380;SDS011;17169;50.966;11.038;2024-03-22T11:22:04;18.92;;;12.38;;
30380;SDS011;17169;50.966;11.038;2024-03-22T11:25:07;22.02;;;12.30;;
30380;SDS011;17169;50.966;11.038;2024-03-22T11:28:09;22.52;;;12.57;;
30380;SDS011;17169;50.966;11.038;2024-03-22T11:31:12;20.58;;;12.13;;
30380;SDS011;17169;50.966;11.038;2024-03-22T11:34:14;22.95;;;12.70;;
30380;SDS011;17169;50.966;11.038;2024-03-22T11:37:15;19.35;;;12.50;;
30380;SDS011;17169;50.966;11.038;2024-03-22T11:40:18;26.13;;;12.38;;
30380;SDS011;17169;50.966;11.038;2024-03-22T11:43:19;17.58;;;11.55;;
30380;SDS011;17169;50.966;11.038;2024-03-22T11:46:23;22.63;;;12.30;;
30380;SDS011;17169;50.966;11.038;2024-03-22T11:49:25;30.02;;;11.57;;
30380;SDS011;17169;50.966;11.038;2024-03-22T11:52:28;17.40;;;10.95;;
30380;SDS011;17169;50.966;11.038;2024-03-22T11:55:30;18.05;;;10.18;;
30380;SDS011;17169;50.966;11.038;2024-03-22T11:58:32;17.88;;;10.43;;
30380;SDS011;17169;50.966;11.038;2024-03-22T12:01:35;19.58;;;10.95;;
30380;SDS011;17169;50.966;11.038;2024-03-22T12:04:40;21.90;;;10.05;;
30380;SDS011;17169;50.966;11.038;2024-03-22T12:07:43;22.35;;;10.30;;
30380;SDS011;17169;50.966;11.038;2024-03-22T12:10:46;18.42;;;10.88;;
30380;SDS011;17169;50.966;11.038;2024-03-22T12:13:47;18.00;;;9.98;;
30380;SDS011;17169;50.966;11.038;2024-03-22T12:16:51;15.75;;;9.77;;
30380;SDS011;17169;50.966;11.038;2024-03-22T12:19:53;21.10;;;10.55;;
30380;SDS011;17169;50.966;11.038;2024-03-22T12:22:55;17.88;;;10.93;;
30380;SDS011;17169;50.966;11.038;2024-03-22T12:25:57;16.90;;;9.02;;
30380;SDS011;17169;50.966;11.038;2024-03-22T12:28:58;16.75;;;9.68;;
30380;SDS011;17169;50.966;11.038;2024-03-22T12:32:02;21.67;;;10.70;;
30380;SDS011;17169;50.966;11.038;2024-03-22T12:35:04;17.55;;;10.18;;
30380;SDS011;17169;50.966;11.038;2024-03-22T12:38:08;16.60;;;9.70;;
30380;SDS011;17169;50.966;11.038;2024-03-22T12:41:12;15.88;;;9.05;;
30380;SDS011;17169;50.966;11.038;2024-03-22T12:44:15;16.60;;;9.35;;
30380;SDS011;17169;50.966;11.038;2024-03-22T12:47:17;16.88;;;10.05;;
30380;SDS011;17169;50.966;11.038;2024-03-22T12:50:19;17.15;;;9.40;;
30380;SDS011;17169;50.966;11.038;2024-03-22T12:53:21;19.65;;;11.35;;
30380;SDS011;17169;50.966;11.038;2024-03-22T12:56:23;21.00;;;10.38;;
30380;SDS011;17169;50.966;11.038;2024-03-22T12:59:24;16.63;;;9.52;;
30380;SDS011;17169;50.966;11.038;2024-03-22T13:02:28;15.50;;;10.10;;
30380;SDS011;17169;50.966;11.038;2024-03-22T13:05:29;24.45;;;11.40;;
30380;SDS011;17169;50.966;11.038;2024-03-22T13:08:32;18.90;;;10.07;;
30380;SDS011;17169;50.966;11.038;2024-03-22T13:11:33;16.05;;;10.52;;
30380;SDS011;17169;50.966;11.038;2024-03-22T13:14:35;18.90;;;9.90;;
30380;SDS011;17169;50.966;11.038;2024-03-22T13:17:38;14.65;;;9.07;;
30380;SDS011;17169;50.966;11.038;2024-03-22T13:20:41;19.45;;;9.98;;
30380;SDS011;17169;50.966;11.038;2024-03-22T13:23:42;16.02;;;9.30;;
30380;SDS011;17169;50.966;11.038;2024-03-22T13:26:44;18.58;;;10.07;;
30380;SDS011;17169;50.966;11.038;2024-03-22T13:29:45;18.05;;;10.50;;
30380;SDS011;17169;50.966;11.038;2024-03-22T13:32:49;20.75;;;9.77;;
30380;SDS011;17169;50.966;11.038;2024-03-22T13:35:50;20.80;;;9.25;;
30380;SDS011;17169;50.966;11.038;2024-03-22T13:38:52;18.73;;;10.05;;
30380;SDS011;17169;50.966;11.038;2024-03-22T13:41:55;15.93;;;9.20;;
30380;SDS011;17169;50.966;11.038;2024-03-22T13:44:56;16.92;;;9.30;;
30380;SDS011;17169;50.966;11.038;2024-03-22T13:48:00;13.55;;;8.38;;
30380;SDS011;17169;50.966;11.038;2024-03-22T13:51:10;15.52;;;9.00;;
30380;SDS011;17169;50.966;11.038;2024-03-22T13:54:12;14.68;;;9.43;;
30380;SDS011;17169;50.966;11.038;2024-03-22T13:57:14;15.52;;;8.40;;
30380;SDS011;17169;50.966;11.038;2024-03-22T14:00:17;14.80;;;8.45;;
30380;SDS011;17169;50.966;11.038;2024-03-22T14:03:20;12.75;;;8.52;;
30380;SDS011;17169;50.966;11.038;2024-03-22T14:06:22;15.02;;;8.00;;
30380;SDS011;17169;50.966;11.038;2024-03-22T14:09:23;14.38;;;9.38;;
30380;SDS011;17169;50.966;11.038;2024-03-22T14:12:26;14.35;;;8.07;;
30380;SDS011;17169;50.966;11.038;2024-03-22T14:15:29;15.23;;;7.82;;
30380;SDS011;17169;50.966;11.038;2024-03-22T14:18:33;15.93;;;8.05;;
30380;SDS011;17169;50.966;11.038;2024-03-22T14:21:37;14.48;;;8.60;;
30380;SDS011;17169;50.966;11.038;2024-03-22T14:24:39;17.17;;;7.53;;
30380;SDS011;17169;50.966;11.038;2024-03-22T14:27:41;14.65;;;8.13;;
30380;SDS011;17169;50.966;11.038;2024-03-22T14:30:46;14.93;;;8.63;;
30380;SDS011;17169;50.966;11.038;2024-03-22T14:33:49;15.27;;;7.90;;
30380;SDS011;17169;50.966;11.038;2024-03-22T14:36:50;13.70;;;7.85;;
30380;SDS011;17169;50.966;11.038;2024-03-22T14:39:53;13.82;;;8.73;;
30380;SDS011;17169;50.966;11.038;2024-03-22T14:42:54;17.48;;;7.95;;
30380;SDS011;17169;50.966;11.038;2024-03-22T14:45:56;13.15;;;8.02;;
30380;SDS011;17169;50.966;11.038;2024-03-22T14:49:00;14.50;;;7.97;;
30380;SDS011;17169;50.966;11.038;2024-03-22T14:52:01;13.07;;;7.50;;
30380;SDS011;17169;50.966;11.038;2024-03-22T14:55:03;13.80;;;7.65;;
30380;SDS011;17169;50.966;11.038;2024-03-22T14:58:05;13.07;;;7.10;;
30380;SDS011;17169;50.966;11.038;2024-03-22T15:01:08;12.40;;;7.28;;
30380;SDS011;17169;50.966;11.038;2024-03-22T15:04:12;20.17;;;7.88;;
30380;SDS011;17169;50.966;11.038;2024-03-22T15:07:15;13.63;;;8.02;;
30380;SDS011;17169;50.966;11.038;2024-03-22T15:10:16;10.68;;;6.43;;
30380;SDS011;17169;50.966;11.038;2024-03-22T15:13:19;18.77;;;8.10;;
30380;SDS011;17169;50.966;11.038;2024-03-22T15:16:21;12.63;;;6.75;;
30380;SDS011;17169;50.966;11.038;2024-03-22T15:19:24;12.02;;;7.40;;
30380;SDS011;17169;50.966;11.038;2024-03-22T15:22:26;15.10;;;6.55;;
30380;SDS011;17169;50.966;11.038;2024-03-22T15:25:28;10.93;;;6.60;;
30380;SDS011;17169;50.966;11.038;2024-03-22T15:28:30;13.80;;;6.25;;
30380;SDS011;17169;50.966;11.038;2024-03-22T15:31:31;11.77;;;6.10;;
30380;SDS011;17169;50.966;11.038;2024-03-22T15:34:35;7.93;;;5.50;;
30380;SDS011;17169;50.966;11.038;2024-03-22T15:37:38;7.57;;;4.90;;
30380;SDS011;17169;50.966;11.038;2024-03-22T15:40:39;9.50;;;5.13;;
30380;SDS011;17169;50.966;11.038;2024-03-22T15:43:43;8.10;;;4.78;;
30380;SDS011;17169;50.966;11.038;2024-03-22T15:46:45;8.48;;;5.03;;
30380;SDS011;17169;50.966;11.038;2024-03-22T15:49:48;12.43;;;5.97;;
30380;SDS011;17169;50.966;11.038;2024-03-22T15:52:51;8.88;;;4.82;;
30380;SDS011;17169;50.966;11.038;2024-03-22T15:55:52;10.02;;;4.82;;
30380;SDS011;17169;50.966;11.038;2024-03-22T15:58:55;13.82;;;5.68;;
30380;SDS011;17169;50.966;11.038;2024-03-22T16:01:56;11.52;;;5.30;;
30380;SDS011;17169;50.966;11.038;2024-03-22T16:04:59;12.48;;;5.75;;
30380;SDS011;17169;50.966;11.038;2024-03-22T16:08:01;11.20;;;5.72;;
30380;SDS011;17169;50.966;11.038;2024-03-22T16:11:03;12.05;;;6.35;;
30380;SDS011;17169;50.966;11.038;2024-03-22T16:14:04;10.38;;;5.60;;
30380;SDS011;17169;50.966;11.038;2024-03-22T16:17:07;10.85;;;5.70;;
30380;SDS011;17169;50.966;11.038;2024-03-22T16:20:11;9.57;;;6.03;;
30380;SDS011;17169;50.966;11.038;2024-03-22T16:23:13;10.45;;;6.75;;
30380;SDS011;17169;50.966;11.038;2024-03-22T16:26:15;10.23;;;5.90;;
30380;SDS011;17169;50.966;11.038;2024-03-22T16:29:17;9.27;;;6.20;;
30380;SDS011;17169;50.966;11.038;2024-03-22T16:32:20;10.27;;;5.72;;
30380;SDS011;17169;50.966;11.038;2024-03-22T16:35:24;10.55;;;6.00;;
30380;SDS011;17169;50.966;11.038;2024-03-22T16:38:25;9.65;;;5.70;;
30380;SDS011;17169;50.966;11.038;2024-03-22T16:41:27;11.27;;;5.60;;
30380;SDS011;17169;50.966;11.038;2024-03-22T16:44:30;13.32;;;5.65;;
30380;SDS011;17169;50.966;11.038;2024-03-22T16:47:31;10.63;;;5.60;;
30380;SDS011;17169;50.966;11.038;2024-03-22T16:50:34;8.40;;;5.55;;
30380;SDS011;17169;50.966;11.038;2024-03-22T16:53:36;10.32;;;5.30;;
30380;SDS011;17169;50.966;11.038;2024-03-22T16:56:38;10.10;;;5.60;;
30380;SDS011;17169;50.966;11.038;2024-03-22T16:59:39;9.45;;;4.70;;
30380;SDS011;17169;50.966;11.038;2024-03-22T17:02:41;7.47;;;4.32;;
30380;SDS011;17169;50.966;11.038;2024-03-22T17:05:45;9.02;;;5.15;;
30380;SDS011;17169;50.966;11.038;2024-03-22T17:08:46;9.10;;;5.03;;
30380;SDS011;17169;50.966;11.038;2024-03-22T17:11:49;10.68;;;5.38;;
30380;SDS011;17169;50.966;11.038;2024-03-22T17:14:50;12.65;;;4.90;;
30380;SDS011;17169;50.966;11.038;2024-03-22T17:17:52;8.55;;;4.80;;
30380;SDS011;17169;50.966;11.038;2024-03-22T17:20:55;9.32;;;5.07;;
30380;SDS011;17169;50.966;11.038;2024-03-22T17:23:57;8.27;;;4.80;;
30380;SDS011;17169;50.966;11.038;2024-03-22T17:26:59;7.80;;;4.82;;
30380;SDS011;17169;50.966;11.038;2024-03-22T17:30:02;11.20;;;5.05;;
30380;SDS011;17169;50.966;11.038;2024-03-22T17:33:05;9.27;;;5.32;;
30380;SDS011;17169;50.966;11.038;2024-03-22T17:36:08;11.10;;;5.75;;
30380;SDS011;17169;50.966;11.038;2024-03-22T17:39:09;11.45;;;5.05;;
30380;SDS011;17169;50.966;11.038;2024-03-22T17:42:12;7.07;;;4.47;;
30380;SDS011;17169;50.966;11.038;2024-03-22T17:45:13;7.38;;;4.18;;